Newport, ME (04953)

10:58 AM EDT on October 22, 2014 (GMT -0400)
Downtown Newport | Change Station
CLOSE
Current Station
Personal Weather Station
Location: Newport, ME
Elevation: 227 ft
Nearby Weather Stations
Active Advisory: Areal Flood Watch

Elev 227 ft 44.84 °N, 69.28 °W | Updated 8 seconds ago

Overcast
Overcast
48.2 °F
Feels Like 45 °F
N
7.0
Wind Variable Wind from ENE
Gusts 10.0 mph

Today
High -- | Low -- °F
--% Chance of Precip.
Yesterday
High -- | Low -- °F
Precip. -- in
7:01 AM 5:40 PM
Waning Crescent, 2% visible
Pressure 30.22 in
Visibility 9.0 miles
Clouds Scattered Clouds 1000 ft
Mostly Cloudy 3000 ft
Overcast 8000 ft
Windchill 45 °F
Dew Point 48 °F
Humidity 99%
Rainfall 0.05 in
Snow Depth Not available.
UV 1 out of 12
Pollen .10 out of 12
PM2.5 Good
Flu Activity Sporadic
METAR KBGR 221353Z 02011KT 9SM -RA SCT010 BKN030 OVC080 08/07 A3022 RMK AO2 RAB08 SLP234 P0003 T00830067

More Conditions Fewer Conditions

Pressure 30.22 in
Visibility 9.0 miles
Clouds Scattered Clouds 1000 ft
Mostly Cloudy 3000 ft
Overcast 8000 ft
Windchill 45 °F
Dew Point 48 °F
Humidity 99%
Rainfall 0.05 in
Snow Depth Not available.
UV 1 out of 12
Pollen .10 out of 12
PM2.5 Good
Flu Activity Sporadic
METAR KBGR 221353Z 02011KT 9SM -RA SCT010 BKN030 OVC080 08/07 A3022 RMK AO2 RAB08 SLP234 P0003 T00830067

More Conditions Fewer Conditions

10-Day Weather Forecast

Almanac

Astronomy

Oct. 22, 2014 Rise Set
Actual Time 7:01 AM EDT 5:40 PM EDT
Civil Twilight 6:31 AM EDT 6:10 PM EDT
Nautical Twilight 5:57 AM EDT 6:44 PM EDT
Astronomical Twilight 5:23 AM EDT 7:18 PM EDT
Moon 5:36 AM EDT 5:07 PM EDT
Length of Visible Light 11h 38m
Length of Day
10h 39m
Tomorrow will be 2m 57s shorter.
Waning Crescent, 2% of the Moon is Illuminated
Today
Waning Crescent
Oct 23
New
Oct 30
First Quarter
Nov 6
Full
Nov 14
Last Quarter

Today's Extremes

State Highs State Lows

Community

WunderPhotos

Upload Photos

1,763,935 photos uploaded!

WunderBlogs® & News

Nearby

Air Quality

  Air Quality AQ Index Pollutant
Yesterday Good
PM2.5
Current Good
PM2.5
Wednesday Good
OZONE
Wednesday Good
PM2.5
Thursday Good
OZONE
Thursday Good
PM2.5
Friday Good
OZONE
Friday Good
PM2.5
Saturday Good
OZONE
Saturday Good
PM2.5

Snow Depth

Station Depth Elevation
No new snow has been reported.

Earthquake Activity

City Distance Mag. Time & Date
No recent earthquake activity has been reported nearby.
Minimum magnitude displayed is 2.5.

Coastal Water Temperatures

Place Temperature
Bar Harbor, ME 54.0 °F
Portland, ME 55.0 °F

Nearby Weather Stations